首页
METAR-TAF:

METAR-TAF

机场 :

臺灣桃園國際機場

臺北, 台湾

纬度: 25-05N, 经度: 121-13E, 海拔: 33米

当前天气观测

该预报发布于23分钟前的17:30 UTC
风速5节,风向南转南东
温度 28°C
湿度 84%
气压 1008 hPa
能见度10公里或以上
少量云层高于1800英尺
多云层高于18000英尺

METAR: RCTP 231730Z 15005KT 9999 FEW018 BKN180 28/25 Q1008 NOSIG RMK A2979

时间: 01:53 (17:53 UTC)

预报

该预报发布于53分钟前的17:00 UTC
预报有效从23日的 18点(UTC)到 24日的 24点(UTC)
风速5节,风向南转西南
能见度10公里或以上
少量云层高于2000英尺
成为
从 24日的 00点(UTC)到 24日的 02点(UTC)
风速10节,风向西转西南
短暂存在
从 24日的 04点(UTC)到 24日的 10点(UTC)
风速12节,风向西转西南,有时为22节阵风
少量云层高于1200英尺
少量云层高于1500英尺, 积雨云.
散云层高于2000英尺
多云层高于3200英尺
成为
从 24日的 10点(UTC)到 24日的 12点(UTC)
风速5节,风向南转西南

TAF: RCTP 231700Z 2318/2424 21005KT 9999 FEW020 BECMG 2400/2402 24010KT TEMPO 2404/2410 25012G22KT FEW012 FEW015CB SCT020 BKN032 BECMG 2410/2412 21005KT

超过4000个机场的气象观测和天气预报(METAR&TAF报告)。

可查询的气象台以黄色和红色小点在地图上表示。

将鼠标移到小点上方,可查看气象台名称。

然后点击查看天气观测和预报。

如需切换地图:点击带黑十字的绿色按钮放大地图;点击带横线的绿色按钮缩小地图;或者点击绿色箭头查看邻近地区的地图。


METAR-TAF: